Accueil
METAR-TAF:

METAR-TAF

Aéroports :

Aéroport de Gênes-Christophe Colomb

Gênes, Italie

latitude: 44-25N, longitude: 008-51E, altitude: 2 m

Observation

Le bulletin a été fait il y a 43 minutes, à 06:50 UTC
Vent 9 kt de nord/nord-est
Température 22°C
Humidité 53%
Pression 1025 hPa
Visibilité 10 km ou plus
pas de nuages en-dessous de 1500 mètres et pas de cumulonimbus.

METAR: LIMJ 250650Z 02009KT CAVOK 22/12 Q1025

Heure: 09:33 (07:33 UTC)

Prévision

Le bulletin a été fait il y a 2 heures et 33 minutes, à 05:00 UTC
Prévision valable du 25 à 06 UTC au 26 à 06 UTC
Vent 10 kt de nord/nord-est
Visibilité 10 km ou plus
pas de nuages en-dessous de 1500 mètres et pas de cumulonimbus.
Evoluant progressivement
du 25 à 10 UTC au 25 à 12 UTC
Vent 10 kt de sud-est
Evoluant progressivement
du 25 à 18 UTC au 25 à 20 UTC
Vent 6 kt de nord/nord-est

TAF: LIMJ 250500Z 2506/2606 02010KT CAVOK BECMG 2510/2512 14010KT BECMG 2518/2520 02006KT

Observations et prévisions météorologiques de plus de 4000 aéroports (messages METAR et TAF).

Les stations disponibles sont représentées par des disques jaunes et rouges sur la carte.

Passer la souris dessus pour voir le nom de la station.

Cliquer dessus pour voir les observations et prévisions météorologiques.

Pour changer de carte: cliquez sur les boutons verts avec une croix noire pour zoomer, sur le bouton vert avec un tiret pour effectuer un zoom arrière, ou sur les flèches vertes pour les cartes adjacentes.


METAR-TAF: